< < Back
Terminal Aerodrome Forecast


Current Version              Previous Versions:   1  2  3  4  5  6  7  8  9  

Terminal Aerodrome Forecast

150
FTUS42 KFFC 031738
TAFFTY
TAF
KFTY 031738Z 0318/0418 35005KT P6SM SCT050
     FM040100 00000KT P6SM FEW080
     FM041700 32004KT P6SM FEW040 SCT250=

Latest METAR

942
SAUS70 KWBC 042200 RRF
MTRFTY
METAR KFTY 042153Z 21007KT 10SM CLR 35/16 A2996 RMK AO2 SLP135
T03500161


USA.gov is the U.S. government's official web portal to all federal, state and local government web resources and services.